Time;durP1;ratioP1;P1;durP2;ratioP2;P2;SDS_P1;SDS_P2;PMS_P1;PMS_P2;Temp;Humidity;BMP_temperature;BMP_pressure;BME280_temperature;BME280_humidity;BME280_pressure;Samples;Min_cycle;Max_cycle;Signal;HPM_P1;HPM_P2
2022/03/30 00:01:30;;;;;;;18.45;5.28;;;;;;;;;;5085040;28;20044;-70
2022/03/30 00:03:58;;;;;;;10.88;4.18;;;;;;;;;;5080232;28;20090;-70
2022/03/30 00:06:35;;;;;;;13.65;5.75;;;;;;;;;;5091589;28;20122;-70
2022/03/30 00:09:04;;;;;;;12.38;4.53;;;;;;;;;;5082401;28;20136;-71
2022/03/30 00:11:44;;;;;;;15.45;4.50;;;;;;;;;;5088672;28;20048;-70
2022/03/30 00:14:14;;;;;;;17.95;5.55;;;;;;;;;;5088804;28;20550;-71
2022/03/30 00:16:42;;;;;;;13.27;4.82;;;;;;;;;;5091836;28;20071;-70
2022/03/30 00:19:10;;;;;;;10.25;4.72;;;;;;;;;;5088122;28;20138;-70
2022/03/30 00:21:39;;;;;;;15.88;4.65;;;;;;;;;;5091951;28;20089;-70
2022/03/30 00:24:07;;;;;;;25.35;5.32;;;;;;;;;;5089839;28;20127;-71
2022/03/30 00:26:36;;;;;;;14.73;4.40;;;;;;;;;;5091861;28;20067;-70
2022/03/30 00:29:05;;;;;;;10.93;4.20;;;;;;;;;;5091780;28;20076;-71
2022/03/30 00:31:34;;;;;;;19.67;4.63;;;;;;;;;;5086922;28;20110;-70
2022/03/30 00:34:03;;;;;;;19.75;5.40;;;;;;;;;;5086911;28;20131;-70
2022/03/30 00:36:31;;;;;;;13.07;4.55;;;;;;;;;;5088484;28;20056;-70
2022/03/30 00:38:59;;;;;;;14.30;4.97;;;;;;;;;;5091430;28;20558;-71
2022/03/30 00:41:28;;;;;;;13.57;4.82;;;;;;;;;;5090199;28;20064;-70
2022/03/30 00:43:56;;;;;;;14.80;4.50;;;;;;;;;;5090853;28;20131;-70
2022/03/30 00:46:38;;;;;;;19.60;5.40;;;;;;;;;;5090513;28;20127;-70
2022/03/30 00:49:07;;;;;;;22.42;6.15;;;;;;;;;;5091575;28;20570;-70
2022/03/30 00:51:35;;;;;;;17.55;5.45;;;;;;;;;;5089154;28;20080;-71
2022/03/30 00:54:04;;;;;;;12.18;5.07;;;;;;;;;;5093115;28;20135;-71
2022/03/30 00:56:33;;;;;;;13.95;5.25;;;;;;;;;;5089644;28;20078;-70
2022/03/30 00:59:02;;;;;;;19.98;5.65;;;;;;;;;;5092691;28;20051;-70
2022/03/30 01:01:36;;;;;;;13.45;5.05;;;;;;;;;;5088339;28;20055;-71
2022/03/30 01:04:07;;;;;;;14.00;5.10;;;;;;;;;;5092711;28;20121;-70
2022/03/30 01:06:35;;;;;;;14.60;4.95;;;;;;;;;;5089405;28;20070;-71
2022/03/30 01:09:04;;;;;;;18.58;5.22;;;;;;;;;;5091290;28;20571;-70
2022/03/30 01:12:00;;;;;;;16.05;5.03;;;;;;;;;;5090208;28;20074;-70
2022/03/30 01:14:29;;;;;;;16.55;5.47;;;;;;;;;;5091309;28;20147;-70
2022/03/30 01:16:57;;;;;;;16.33;5.88;;;;;;;;;;5087759;28;20072;-70
2022/03/30 01:19:29;;;;;;;14.10;5.15;;;;;;;;;;5091686;28;20052;-70
2022/03/30 01:21:59;;;;;;;12.52;5.22;;;;;;;;;;5088578;28;20119;-70
2022/03/30 01:24:28;;;;;;;19.35;6.18;;;;;;;;;;5092501;28;20113;-70
2022/03/30 01:26:56;;;;;;;17.20;5.70;;;;;;;;;;5090695;28;20044;-72
2022/03/30 01:34:57;;;;;;;19.23;5.97;;;;;;;;;;5082476;28;20496;-70
2022/03/30 01:37:28;;;;;;;21.77;5.50;;;;;;;;;;5091974;28;20044;-70
2022/03/30 01:39:57;;;;;;;18.15;5.60;;;;;;;;;;5090288;28;20067;-70
2022/03/30 01:42:26;;;;;;;12.93;5.05;;;;;;;;;;5091237;28;20040;-70
2022/03/30 01:44:55;;;;;;;14.70;5.78;;;;;;;;;;5090390;28;20133;-70
2022/03/30 01:47:24;;;;;;;14.10;5.78;;;;;;;;;;5091249;28;20134;-70
2022/03/30 01:49:53;;;;;;;19.95;6.15;;;;;;;;;;5089140;28;20060;-70
2022/03/30 01:52:21;;;;;;;18.85;6.28;;;;;;;;;;5086964;28;20483;-70
2022/03/30 01:54:51;;;;;;;21.35;6.78;;;;;;;;;;5090095;28;20051;-70
2022/03/30 01:57:19;;;;;;;23.27;6.30;;;;;;;;;;5088349;28;20128;-70
2022/03/30 01:59:48;;;;;;;18.77;6.32;;;;;;;;;;5089051;28;20079;-70
2022/03/30 02:02:16;;;;;;;19.98;6.05;;;;;;;;;;5090366;28;20080;-70
2022/03/30 02:04:44;;;;;;;20.63;5.93;;;;;;;;;;5088646;28;20131;-69
2022/03/30 02:07:12;;;;;;;15.02;5.63;;;;;;;;;;5090888;28;20509;-70
2022/03/30 02:09:41;;;;;;;19.85;5.60;;;;;;;;;;5086336;28;20044;-70
2022/03/30 02:12:11;;;;;;;12.23;5.47;;;;;;;;;;5090471;28;20455;-70
2022/03/30 02:14:39;;;;;;;18.30;5.70;;;;;;;;;;5088302;28;20078;-70
2022/03/30 02:17:08;;;;;;;13.90;5.82;;;;;;;;;;5090235;28;20076;-70
2022/03/30 02:19:36;;;;;;;19.52;6.72;;;;;;;;;;5089972;28;20142;-70
2022/03/30 02:22:04;;;;;;;14.88;5.22;;;;;;;;;;5090309;28;20138;-71
2022/03/30 02:24:33;;;;;;;13.25;5.25;;;;;;;;;;5083670;28;20056;-70
2022/03/30 02:27:01;;;;;;;20.15;6.10;;;;;;;;;;5088613;28;20067;-70
2022/03/30 02:29:31;;;;;;;19.90;5.50;;;;;;;;;;5087788;28;20123;-70
2022/03/30 02:32:00;;;;;;;19.33;5.40;;;;;;;;;;5086503;28;20717;-70
2022/03/30 02:34:30;;;;;;;20.02;5.43;;;;;;;;;;5083827;28;20179;-70
2022/03/30 02:36:58;;;;;;;25.92;5.50;;;;;;;;;;5095505;28;20138;-70
2022/03/30 02:39:26;;;;;;;17.90;5.13;;;;;;;;;;5103813;27;20558;-70
2022/03/30 02:41:56;;;;;;;21.73;5.75;;;;;;;;;;5083107;28;20052;-70
2022/03/30 02:44:25;;;;;;;20.02;5.53;;;;;;;;;;5085052;28;20094;-70
2022/03/30 02:46:54;;;;;;;16.40;5.32;;;;;;;;;;5089404;28;20174;-70
2022/03/30 02:49:23;;;;;;;14.60;5.68;;;;;;;;;;5089479;28;20125;-71
2022/03/30 02:51:51;;;;;;;16.02;5.50;;;;;;;;;;5089324;28;20119;-70
2022/03/30 02:54:19;;;;;;;18.63;5.93;;;;;;;;;;5090243;28;20135;-70
2022/03/30 02:56:48;;;;;;;19.52;5.20;;;;;;;;;;5088395;28;20143;-70
2022/03/30 02:59:16;;;;;;;18.85;5.47;;;;;;;;;;5092364;28;20052;-70
2022/03/30 03:01:44;;;;;;;11.57;4.68;;;;;;;;;;5088346;28;20132;-70
2022/03/30 03:04:14;;;;;;;16.50;5.70;;;;;;;;;;5090335;28;20063;-70
2022/03/30 03:06:43;;;;;;;19.80;4.57;;;;;;;;;;5087692;28;20473;-70
2022/03/30 03:09:11;;;;;;;19.98;5.45;;;;;;;;;;5089257;28;20052;-70
2022/03/30 03:11:39;;;;;;;13.57;5.15;;;;;;;;;;5085801;28;20127;-70
2022/03/30 03:14:09;;;;;;;20.65;6.13;;;;;;;;;;5087815;28;20052;-70
2022/03/30 03:16:49;;;;;;;22.00;5.82;;;;;;;;;;5080237;28;20087;-70
2022/03/30 03:19:19;;;;;;;19.83;4.82;;;;;;;;;;5088997;28;20559;-70
2022/03/30 03:21:47;;;;;;;15.50;5.55;;;;;;;;;;5089137;28;20040;-70
2022/03/30 03:24:16;;;;;;;19.00;5.60;;;;;;;;;;5086719;28;20071;-71
2022/03/30 03:26:44;;;;;;;13.05;5.05;;;;;;;;;;5087382;28;20514;-70
2022/03/30 03:29:12;;;;;;;17.17;6.10;;;;;;;;;;5088618;28;20500;-70
2022/03/30 03:31:40;;;;;;;20.20;5.53;;;;;;;;;;5087618;28;20131;-70
2022/03/30 03:34:09;;;;;;;20.05;5.00;;;;;;;;;;5086451;28;20093;-70
2022/03/30 03:36:38;;;;;;;15.70;5.05;;;;;;;;;;5086781;28;20547;-70
2022/03/30 03:39:07;;;;;;;19.48;5.38;;;;;;;;;;5077453;28;20150;-70
2022/03/30 03:41:35;;;;;;;21.35;4.85;;;;;;;;;;5092162;28;20576;-70
2022/03/30 03:44:04;;;;;;;15.82;5.20;;;;;;;;;;5094262;28;20351;-70
2022/03/30 03:46:32;;;;;;;16.95;4.72;;;;;;;;;;5096011;28;20071;-71
2022/03/30 03:49:00;;;;;;;15.70;5.32;;;;;;;;;;5093174;28;20040;-70
2022/03/30 03:51:35;;;;;;;19.58;5.70;;;;;;;;;;5090582;28;20477;-70
2022/03/30 03:54:04;;;;;;;19.73;5.38;;;;;;;;;;5092416;28;20083;-70
2022/03/30 03:56:33;;;;;;;16.70;5.68;;;;;;;;;;5091982;28;20048;-71
2022/03/30 03:59:01;;;;;;;20.08;6.07;;;;;;;;;;5093220;28;20090;-70
2022/03/30 04:01:39;;;;;;;18.70;5.15;;;;;;;;;;5091315;28;20043;-70
2022/03/30 04:04:07;;;;;;;17.13;5.10;;;;;;;;;;5090421;28;20048;-70
2022/03/30 04:06:36;;;;;;;19.13;5.78;;;;;;;;;;5090904;28;20040;-70
2022/03/30 04:09:06;;;;;;;18.40;5.53;;;;;;;;;;5091850;28;20127;-71
2022/03/30 04:11:34;;;;;;;15.73;5.65;;;;;;;;;;5087245;28;20134;-70
2022/03/30 04:14:02;;;;;;;13.52;4.75;;;;;;;;;;5089923;28;20058;-70
2022/03/30 04:16:30;;;;;;;15.82;5.07;;;;;;;;;;5092587;28;20471;-68
2022/03/30 04:18:59;;;;;;;16.85;5.38;;;;;;;;;;5090846;28;20079;-69
2022/03/30 04:21:30;;;;;;;17.42;5.00;;;;;;;;;;5092474;28;20052;-70
2022/03/30 04:23:58;;;;;;;12.95;4.82;;;;;;;;;;5091243;28;20047;-69
2022/03/30 04:26:28;;;;;;;13.13;4.57;;;;;;;;;;5093418;28;20050;-70
2022/03/30 04:28:56;;;;;;;15.57;5.35;;;;;;;;;;5088704;28;20083;-70
2022/03/30 04:31:27;;;;;;;19.60;5.60;;;;;;;;;;5091793;28;20494;-69
2022/03/30 04:33:56;;;;;;;14.43;4.93;;;;;;;;;;5088567;28;20052;-70
2022/03/30 04:36:24;;;;;;;17.20;5.30;;;;;;;;;;5091774;28;20042;-69
2022/03/30 04:38:52;;;;;;;15.77;4.85;;;;;;;;;;5085459;28;20090;-69
2022/03/30 04:41:24;;;;;;;12.52;5.18;;;;;;;;;;5089683;28;20126;-69
2022/03/30 04:43:53;;;;;;;22.35;5.65;;;;;;;;;;5080930;28;20547;-69
2022/03/30 04:46:25;;;;;;;19.85;5.10;;;;;;;;;;5093010;28;20388;-69
2022/03/30 04:48:53;;;;;;;14.63;5.28;;;;;;;;;;5089669;28;20534;-69
2022/03/30 04:51:40;;;;;;;17.05;5.60;;;;;;;;;;5090886;28;20080;-69
2022/03/30 04:54:08;;;;;;;17.80;5.63;;;;;;;;;;5088154;28;20130;-70
2022/03/30 04:56:36;;;;;;;17.02;5.00;;;;;;;;;;5092165;28;20056;-70
2022/03/30 04:59:06;;;;;;;23.42;6.72;;;;;;;;;;5089158;28;20040;-69
2022/03/30 05:01:37;;;;;;;21.65;5.55;;;;;;;;;;5093459;28;20479;-70
2022/03/30 05:04:07;;;;;;;15.18;5.35;;;;;;;;;;5090247;28;20048;-70
2022/03/30 05:06:35;;;;;;;18.95;5.55;;;;;;;;;;5087979;28;20089;-70
2022/03/30 05:09:04;;;;;;;17.52;5.38;;;;;;;;;;5088975;28;20139;-70
2022/03/30 05:11:32;;;;;;;18.98;5.30;;;;;;;;;;5086931;28;20079;-69
2022/03/30 05:14:01;;;;;;;14.52;5.38;;;;;;;;;;5085587;28;20126;-70
2022/03/30 05:16:30;;;;;;;23.35;6.53;;;;;;;;;;5084412;28;20163;-69
2022/03/30 05:18:59;;;;;;;14.82;5.70;;;;;;;;;;5087954;28;20048;-70
2022/03/30 05:21:29;;;;;;;20.30;5.30;;;;;;;;;;5088013;28;20432;-70
2022/03/30 05:23:57;;;;;;;13.60;5.15;;;;;;;;;;5086468;28;20044;-70
2022/03/30 05:26:31;;;;;;;20.70;5.78;;;;;;;;;;5086060;28;20083;-70
2022/03/30 05:29:00;;;;;;;22.30;5.18;;;;;;;;;;5081828;28;20056;-70
2022/03/30 05:31:28;;;;;;;15.80;5.38;;;;;;;;;;5075922;28;20064;-70
2022/03/30 05:33:58;;;;;;;16.98;5.13;;;;;;;;;;5077477;28;20385;-69
2022/03/30 05:36:32;;;;;;;15.18;5.63;;;;;;;;;;5081745;28;20684;-69
2022/03/30 05:39:00;;;;;;;19.52;5.88;;;;;;;;;;5083140;28;20482;-69
2022/03/30 05:41:29;;;;;;;20.67;6.03;;;;;;;;;;5074956;28;20048;-69
2022/03/30 05:43:57;;;;;;;17.05;4.97;;;;;;;;;;5084873;28;20054;-70
2022/03/30 05:46:34;;;;;;;12.85;5.55;;;;;;;;;;5081045;28;20083;-69
2022/03/30 05:49:04;;;;;;;23.23;5.57;;;;;;;;;;5075408;28;20127;-70
2022/03/30 05:51:33;;;;;;;16.58;5.60;;;;;;;;;;5095580;28;20040;-70
2022/03/30 05:54:01;;;;;;;14.35;4.90;;;;;;;;;;5079540;28;20127;-69
2022/03/30 05:59:15;;;;;;;21.55;6.15;;;;;;;;;;5086141;28;20468;-69
2022/03/30 06:01:44;;;;;;;17.95;5.55;;;;;;;;;;5086722;28;20595;-70
2022/03/30 06:04:14;;;;;;;14.63;5.05;;;;;;;;;;5090161;28;20078;-69
2022/03/30 06:06:43;;;;;;;18.63;5.53;;;;;;;;;;5078929;28;20058;-70
2022/03/30 06:09:11;;;;;;;15.25;4.80;;;;;;;;;;5090836;28;20070;-69
2022/03/30 06:11:40;;;;;;;17.33;5.60;;;;;;;;;;5094264;28;20040;-70
2022/03/30 06:14:09;;;;;;;25.50;5.95;;;;;;;;;;5090117;28;20131;-70
2022/03/30 06:16:37;;;;;;;21.63;6.32;;;;;;;;;;5089687;28;20624;-71
2022/03/30 06:19:06;;;;;;;20.08;5.75;;;;;;;;;;5095751;28;20083;-69
2022/03/30 06:21:35;;;;;;;13.95;5.55;;;;;;;;;;5096817;28;20160;-69
2022/03/30 06:24:04;;;;;;;18.48;4.75;;;;;;;;;;5091373;28;20047;-70
2022/03/30 06:26:33;;;;;;;21.33;5.90;;;;;;;;;;5091205;28;20043;-70
2022/03/30 06:29:01;;;;;;;20.50;4.75;;;;;;;;;;5090500;28;20422;-71
2022/03/30 06:31:33;;;;;;;22.58;5.15;;;;;;;;;;5087981;28;20071;-70
2022/03/30 06:34:02;;;;;;;21.38;4.65;;;;;;;;;;5085716;28;20086;-69
2022/03/30 06:36:33;;;;;;;21.70;5.60;;;;;;;;;;5088304;28;20402;-70
2022/03/30 06:39:03;;;;;;;22.55;5.20;;;;;;;;;;5091354;27;20052;-70
2022/03/30 06:41:32;;;;;;;29.13;5.65;;;;;;;;;;5088843;28;20146;-70
2022/03/30 06:44:01;;;;;;;22.25;5.30;;;;;;;;;;5089401;28;20046;-70
2022/03/30 06:46:33;;;;;;;19.65;5.78;;;;;;;;;;5093359;28;20059;-69
2022/03/30 06:49:02;;;;;;;22.58;5.53;;;;;;;;;;5088347;28;20039;-70
2022/03/30 06:51:31;;;;;;;24.23;5.40;;;;;;;;;;5091907;28;20491;-69
2022/03/30 06:53:59;;;;;;;24.02;5.13;;;;;;;;;;5100217;28;20047;-69
2022/03/30 06:56:42;;;;;;;16.38;5.70;;;;;;;;;;5088451;28;20132;-69
2022/03/30 06:59:13;;;;;;;24.67;5.13;;;;;;;;;;5097069;28;20374;-69
2022/03/30 07:01:51;;;;;;;33.15;5.32;;;;;;;;;;5091513;28;20056;-70
2022/03/30 07:04:21;;;;;;;17.05;5.07;;;;;;;;;;5090697;28;20048;-70
2022/03/30 07:12:38;;;;;;;26.00;4.82;;;;;;;;;;5007735;28;20060;-70
2022/03/30 07:15:07;;;;;;;17.58;4.43;;;;;;;;;;5054832;28;20440;-70
2022/03/30 07:17:43;;;;;;;14.15;4.57;;;;;;;;;;5093262;28;20039;-70
2022/03/30 07:20:12;;;;;;;12.73;4.90;;;;;;;;;;5084016;28;20067;-69
2022/03/30 07:22:41;;;;;;;15.23;4.35;;;;;;;;;;5089236;28;20040;-70
2022/03/30 07:25:10;;;;;;;26.85;5.10;;;;;;;;;;5089476;28;20048;-70
2022/03/30 07:27:42;;;;;;;23.15;5.45;;;;;;;;;;5096347;28;20043;-70
2022/03/30 07:30:11;;;;;;;24.65;5.18;;;;;;;;;;5095220;28;20040;-69
2022/03/30 07:32:41;;;;;;;20.27;4.57;;;;;;;;;;5102301;28;20079;-70
2022/03/30 07:35:10;;;;;;;14.25;4.20;;;;;;;;;;5076252;28;20123;-70
2022/03/30 07:37:40;;;;;;;13.48;4.85;;;;;;;;;;5083246;28;20385;-70
2022/03/30 07:40:09;;;;;;;20.23;5.43;;;;;;;;;;5086829;28;20461;-70
2022/03/30 07:42:39;;;;;;;16.63;4.63;;;;;;;;;;5086098;28;20048;-70
2022/03/30 07:45:09;;;;;;;20.63;5.40;;;;;;;;;;5087308;28;20056;-70
2022/03/30 07:47:38;;;;;;;22.17;5.20;;;;;;;;;;5086510;28;20048;-71
2022/03/30 07:50:08;;;;;;;17.52;4.88;;;;;;;;;;5086968;28;20503;-69
2022/03/30 07:52:37;;;;;;;16.83;4.15;;;;;;;;;;5088434;28;20059;-69
2022/03/30 07:55:07;;;;;;;17.77;4.95;;;;;;;;;;5087045;28;20563;-69
2022/03/30 07:57:37;;;;;;;25.10;5.07;;;;;;;;;;5084757;28;20070;-70
2022/03/30 08:00:08;;;;;;;18.75;4.53;;;;;;;;;;5097784;28;20060;-69
2022/03/30 08:02:38;;;;;;;28.67;5.15;;;;;;;;;;5088520;28;20113;-70
2022/03/30 08:05:10;;;;;;;17.83;4.15;;;;;;;;;;5088464;28;20131;-71
2022/03/30 08:07:39;;;;;;;16.25;4.38;;;;;;;;;;5089377;28;20560;-70
2022/03/30 08:10:09;;;;;;;20.02;4.47;;;;;;;;;;5087968;28;20043;-70
2022/03/30 08:12:39;;;;;;;10.38;3.70;;;;;;;;;;5089648;28;20055;-70
2022/03/30 08:15:13;;;;;;;24.48;5.85;;;;;;;;;;5081628;28;20044;-70
2022/03/30 08:17:44;;;;;;;17.05;4.38;;;;;;;;;;5103514;28;20047;-70
2022/03/30 08:22:25;;;;;;;18.58;4.38;;;;;;;;;;5096098;28;20402;-70
2022/03/30 08:23:01;;;;;;;12.73;3.47;;;;;;;;;;5107310;28;20047;-70
2022/03/30 08:25:30;;;;;;;20.80;4.75;;;;;;;;;;5096593;28;20047;-70
2022/03/30 08:27:59;;;;;;;12.27;4.50;;;;;;;;;;5090933;28;20136;-69
2022/03/30 08:30:29;;;;;;;15.35;4.20;;;;;;;;;;5088717;28;20052;-69
2022/03/30 08:33:00;;;;;;;16.45;4.32;;;;;;;;;;5091456;28;20051;-70
2022/03/30 08:35:29;;;;;;;24.02;4.55;;;;;;;;;;5088868;28;20549;-70
2022/03/30 08:37:58;;;;;;;12.27;4.28;;;;;;;;;;5098979;28;20063;-70
2022/03/30 08:40:27;;;;;;;12.85;4.60;;;;;;;;;;5090947;28;20040;-70
2022/03/30 08:42:56;;;;;;;17.65;4.55;;;;;;;;;;5108062;28;20051;-70
2022/03/30 08:45:25;;;;;;;20.83;4.78;;;;;;;;;;5100518;28;20567;-70
2022/03/30 08:47:53;;;;;;;9.98;3.83;;;;;;;;;;5092264;28;20455;-70
2022/03/30 08:50:24;;;;;;;18.88;4.13;;;;;;;;;;5092658;28;20052;-70
2022/03/30 08:52:55;;;;;;;15.05;3.72;;;;;;;;;;5090981;28;20139;-70
2022/03/30 08:55:24;;;;;;;20.65;5.25;;;;;;;;;;5092545;28;20044;-70
2022/03/30 08:57:54;;;;;;;12.25;3.92;;;;;;;;;;5107962;28;20135;-70
2022/03/30 09:00:23;;;;;;;18.15;3.78;;;;;;;;;;5090143;28;20052;-70
2022/03/30 09:03:00;;;;;;;11.98;4.13;;;;;;;;;;5084838;28;20094;-70
2022/03/30 09:05:32;;;;;;;16.55;4.82;;;;;;;;;;5090756;28;20102;-70
2022/03/30 09:08:11;;;;;;;17.40;3.92;;;;;;;;;;5092160;28;20041;-69
2022/03/30 09:10:42;;;;;;;22.05;4.70;;;;;;;;;;5092046;28;20040;-70
2022/03/30 09:16:42;;;;;;;21.25;4.82;;;;;;;;;;5081258;28;20090;-69
2022/03/30 09:19:12;;;;;;;15.68;4.10;;;;;;;;;;5093452;28;20052;-70
2022/03/30 09:21:43;;;;;;;20.27;4.30;;;;;;;;;;5091073;28;20068;-70
2022/03/30 09:24:12;;;;;;;14.88;4.15;;;;;;;;;;5099829;28;20064;-70
2022/03/30 09:26:41;;;;;;;19.98;4.25;;;;;;;;;;5086924;28;20414;-71
2022/03/30 09:29:12;;;;;;;16.75;4.78;;;;;;;;;;5097592;28;20131;-71
2022/03/30 09:31:42;;;;;;;14.05;4.65;;;;;;;;;;5087318;28;20664;-70
2022/03/30 09:34:12;;;;;;;18.88;4.63;;;;;;;;;;5093655;28;20171;-70
2022/03/30 09:36:41;;;;;;;19.08;4.45;;;;;;;;;;5091765;28;20071;-70
2022/03/30 09:39:28;;;;;;;19.83;4.35;;;;;;;;;;5089759;28;20075;-69
2022/03/30 09:41:59;;;;;;;18.35;5.28;;;;;;;;;;5091980;28;20044;-69
2022/03/30 09:44:29;;;;;;;22.98;5.07;;;;;;;;;;5093175;28;20143;-69
2022/03/30 09:46:58;;;;;;;16.85;4.63;;;;;;;;;;5092702;28;20047;-70
2022/03/30 09:49:37;;;;;;;15.27;3.70;;;;;;;;;;5093674;28;20551;-70
2022/03/30 09:52:13;;;;;;;13.95;4.32;;;;;;;;;;5092073;28;20123;-70
2022/03/30 09:54:43;;;;;;;22.83;4.68;;;;;;;;;;5091236;28;20052;-71
2022/03/30 09:57:15;;;;;;;17.85;4.70;;;;;;;;;;5092197;28;20063;-70
2022/03/30 09:59:57;;;;;;;22.92;4.15;;;;;;;;;;5091995;28;20124;-70
2022/03/30 10:02:26;;;;;;;13.23;4.20;;;;;;;;;;5090917;28;20454;-70
2022/03/30 10:04:55;;;;;;;13.27;4.75;;;;;;;;;;5102820;28;20103;-70
2022/03/30 10:07:24;;;;;;;20.55;4.40;;;;;;;;;;5090856;28;20047;-70
2022/03/30 10:09:52;;;;;;;17.80;4.88;;;;;;;;;;5087783;28;20139;-70
2022/03/30 10:12:22;;;;;;;19.48;4.97;;;;;;;;;;5089232;28;20090;-70
2022/03/30 10:14:51;;;;;;;20.48;4.55;;;;;;;;;;5097613;28;20418;-70
2022/03/30 10:17:20;;;;;;;16.40;5.65;;;;;;;;;;5091823;28;20047;-70
2022/03/30 10:19:49;;;;;;;22.13;4.35;;;;;;;;;;5082857;28;20068;-70
2022/03/30 10:22:34;;;;;;;16.90;5.00;;;;;;;;;;5096718;28;20070;-70
2022/03/30 10:25:16;;;;;;;17.10;4.38;;;;;;;;;;5096875;28;20043;-70
2022/03/30 10:27:49;;;;;;;14.85;4.88;;;;;;;;;;5096509;28;20097;-70
2022/03/30 10:30:24;;;;;;;16.30;4.95;;;;;;;;;;5089135;28;20494;-70
2022/03/30 10:32:55;;;;;;;24.30;5.35;;;;;;;;;;5096124;28;20065;-70
2022/03/30 10:35:37;;;;;;;15.57;5.07;;;;;;;;;;5085862;28;20048;-70
2022/03/30 10:38:06;;;;;;;18.52;5.47;;;;;;;;;;5109160;28;20168;-70
2022/03/30 10:40:36;;;;;;;12.82;4.80;;;;;;;;;;5106660;28;20098;-70
2022/03/30 10:43:12;;;;;;;21.25;6.60;;;;;;;;;;5093216;28;20079;-70
2022/03/30 10:45:45;;;;;;;17.63;5.00;;;;;;;;;;5101534;28;20071;-71
2022/03/30 10:48:16;;;;;;;19.65;4.78;;;;;;;;;;5102273;28;20467;-71
2022/03/30 10:50:46;;;;;;;17.13;4.18;;;;;;;;;;5110006;28;20044;-70
2022/03/30 10:53:33;;;;;;;21.58;4.90;;;;;;;;;;5101362;28;20039;-70
2022/03/30 10:56:18;;;;;;;20.83;5.40;;;;;;;;;;5083022;28;20093;-70
2022/03/30 10:59:01;;;;;;;16.98;4.32;;;;;;;;;;5083585;28;20050;-71
2022/03/30 11:01:32;;;;;;;20.15;4.80;;;;;;;;;;5092660;28;20545;-70
2022/03/30 11:04:02;;;;;;;27.17;5.25;;;;;;;;;;5091403;28;20403;-70
2022/03/30 11:06:31;;;;;;;20.85;5.30;;;;;;;;;;5099123;28;20044;-70
2022/03/30 11:09:01;;;;;;;23.40;5.80;;;;;;;;;;5100194;28;20059;-71
2022/03/30 11:11:34;;;;;;;26.90;4.65;;;;;;;;;;5098763;28;20040;-70
2022/03/30 11:14:22;;;;;;;16.63;4.60;;;;;;;;;;5099565;28;20479;-70
2022/03/30 11:16:52;;;;;;;25.52;4.38;;;;;;;;;;5094764;28;20149;-70
2022/03/30 11:19:22;;;;;;;14.82;4.43;;;;;;;;;;5102074;28;20073;-70
2022/03/30 11:21:54;;;;;;;15.45;5.38;;;;;;;;;;5093515;28;20472;-70
2022/03/30 11:24:24;;;;;;;21.13;5.30;;;;;;;;;;5091912;28;20090;-70
2022/03/30 11:27:23;;;;;;;26.80;5.40;;;;;;;;;;5083558;28;20043;-70
2022/03/30 11:29:59;;;;;;;22.58;5.47;;;;;;;;;;5090529;28;20058;-69
2022/03/30 11:32:42;;;;;;;21.17;4.47;;;;;;;;;;5100236;28;20101;-70
2022/03/30 11:35:13;;;;;;;15.50;4.20;;;;;;;;;;5080736;28;20311;-71
2022/03/30 11:37:43;;;;;;;17.42;4.63;;;;;;;;;;5088840;28;21293;-71
2022/03/30 11:40:13;;;;;;;23.70;4.32;;;;;;;;;;5087203;28;20449;-70
2022/03/30 11:42:49;;;;;;;22.35;5.13;;;;;;;;;;5086254;28;20093;-69
2022/03/30 11:45:20;;;;;;;18.48;4.60;;;;;;;;;;5091161;28;20048;-70
2022/03/30 11:47:57;;;;;;;13.75;4.68;;;;;;;;;;5088399;28;20044;-71
2022/03/30 11:50:29;;;;;;;28.98;4.57;;;;;;;;;;5087970;28;20138;-70
2022/03/30 11:52:59;;;;;;;16.30;4.57;;;;;;;;;;5088884;28;20400;-70
2022/03/30 11:55:29;;;;;;;20.35;4.20;;;;;;;;;;5089538;28;20614;-71
2022/03/30 11:58:00;;;;;;;19.70;4.65;;;;;;;;;;5092222;28;20050;-71
2022/03/30 12:00:30;;;;;;;20.10;5.05;;;;;;;;;;5087533;28;20576;-71
2022/03/30 12:02:59;;;;;;;20.02;5.28;;;;;;;;;;5091466;28;20043;-71
2022/03/30 12:05:30;;;;;;;14.90;4.40;;;;;;;;;;5095656;28;20069;-71
2022/03/30 12:08:02;;;;;;;19.80;5.15;;;;;;;;;;5098917;28;20044;-71
2022/03/30 12:10:32;;;;;;;21.38;4.40;;;;;;;;;;5095275;28;20048;-70
2022/03/30 12:13:01;;;;;;;19.75;4.55;;;;;;;;;;5089130;28;20058;-69
2022/03/30 12:15:30;;;;;;;13.20;4.47;;;;;;;;;;5097846;28;20417;-70
2022/03/30 12:17:59;;;;;;;24.13;4.72;;;;;;;;;;5100188;28;20096;-69
2022/03/30 12:20:31;;;;;;;19.80;5.32;;;;;;;;;;5095689;28;20738;-69
2022/03/30 12:23:01;;;;;;;21.83;5.35;;;;;;;;;;5090925;28;20056;-69
2022/03/30 12:25:31;;;;;;;19.75;4.65;;;;;;;;;;5101047;28;20052;-69
2022/03/30 12:28:00;;;;;;;22.30;4.88;;;;;;;;;;5093925;28;20060;-70
2022/03/30 12:30:30;;;;;;;16.77;5.75;;;;;;;;;;5080066;28;20048;-70
2022/03/30 12:32:59;;;;;;;16.83;5.90;;;;;;;;;;5092231;28;20075;-69
2022/03/30 12:35:34;;;;;;;17.70;5.38;;;;;;;;;;5083323;28;20531;-70
2022/03/30 12:38:02;;;;;;;;;;;;;;;;;;5089780;28;20059;-69
2022/03/30 12:40:34;;;;;;;18.20;4.65;;;;;;;;;;5100326;28;19962;-69
2022/03/30 12:43:02;;;;;;;22.60;5.63;;;;;;;;;;5094194;28;20128;-70
2022/03/30 12:45:32;;;;;;;25.95;6.30;;;;;;;;;;5103548;28;20483;-69
2022/03/30 12:48:02;;;;;;;23.60;5.75;;;;;;;;;;5089648;28;20139;-69
2022/03/30 12:50:33;;;;;;;25.75;5.47;;;;;;;;;;5091429;28;20506;-70
2022/03/30 12:53:06;;;;;;;13.43;4.93;;;;;;;;;;5097683;28;20395;-70
2022/03/30 12:55:37;;;;;;;18.48;6.03;;;;;;;;;;5106485;28;20483;-70
2022/03/30 12:58:08;;;;;;;18.15;5.43;;;;;;;;;;5097868;28;20052;-71
2022/03/30 13:00:37;;;;;;;21.88;5.45;;;;;;;;;;5092701;28;20047;-71
2022/03/30 13:03:09;;;;;;;18.40;5.57;;;;;;;;;;5104513;28;20052;-71
2022/03/30 13:05:40;;;;;;;18.20;6.30;;;;;;;;;;5093309;28;20531;-71
2022/03/30 13:08:16;;;;;;;20.83;6.93;;;;;;;;;;5086550;28;20058;-71
2022/03/30 13:10:53;;;;;;;20.05;6.22;;;;;;;;;;5095029;28;20047;-71
2022/03/30 13:13:22;;;;;;;19.65;6.63;;;;;;;;;;5090684;28;20426;-71
2022/03/30 13:15:51;;;;;;;15.43;5.78;;;;;;;;;;5099562;28;20066;-71
2022/03/30 13:18:22;;;;;;;19.75;7.10;;;;;;;;;;5083062;28;20400;-71
2022/03/30 13:20:59;;;;;;;15.68;6.05;;;;;;;;;;5096210;28;20416;-71
2022/03/30 13:23:35;;;;;;;20.38;7.18;;;;;;;;;;5096772;28;20056;-70
2022/03/30 13:26:07;;;;;;;19.30;7.00;;;;;;;;;;5090272;28;20051;-71
2022/03/30 13:28:37;;;;;;;19.13;7.25;;;;;;;;;;5091473;28;20052;-71
2022/03/30 13:31:09;;;;;;;23.23;6.68;;;;;;;;;;5092093;28;20058;-72
2022/03/30 13:33:38;;;;;;;18.15;6.80;;;;;;;;;;5098132;28;20135;-72
2022/03/30 13:36:08;;;;;;;24.70;7.68;;;;;;;;;;5089106;28;20048;-71
2022/03/30 13:38:37;;;;;;;24.42;7.82;;;;;;;;;;5095299;28;20632;-71
2022/03/30 13:41:06;;;;;;;18.08;7.13;;;;;;;;;;5098244;28;20052;-71
2022/03/30 13:43:35;;;;;;;13.38;6.22;;;;;;;;;;5090082;28;20036;-72
2022/03/30 13:46:07;;;;;;;19.17;7.75;;;;;;;;;;5086499;28;20048;-71
2022/03/30 13:48:36;;;;;;;20.08;6.80;;;;;;;;;;5090243;28;20040;-70
2022/03/30 13:51:10;;;;;;;21.42;7.53;;;;;;;;;;5089464;28;20052;-70
2022/03/30 13:53:39;;;;;;;25.02;6.70;;;;;;;;;;5095729;28;20052;-70
2022/03/30 13:56:09;;;;;;;17.17;7.32;;;;;;;;;;5102684;28;20054;-70
2022/03/30 13:58:38;;;;;;;16.67;7.03;;;;;;;;;;5090122;28;20051;-70
2022/03/30 14:01:08;;;;;;;23.60;7.82;;;;;;;;;;5087339;28;20498;-71
2022/03/30 14:03:37;;;;;;;24.45;8.25;;;;;;;;;;5089465;28;20113;-71
2022/03/30 14:06:07;;;;;;;19.75;8.32;;;;;;;;;;5088668;28;20122;-71
2022/03/30 14:08:37;;;;;;;23.63;8.25;;;;;;;;;;5100259;28;20542;-69
2022/03/30 14:11:07;;;;;;;20.73;7.50;;;;;;;;;;5094443;28;20050;-71
2022/03/30 14:13:36;;;;;;;21.90;7.22;;;;;;;;;;5089214;28;20048;-72
2022/03/30 14:16:08;;;;;;;17.92;7.63;;;;;;;;;;5092354;28;20151;-72
2022/03/30 14:18:38;;;;;;;22.92;8.02;;;;;;;;;;5093336;28;20056;-70
2022/03/30 14:21:07;;;;;;;24.65;9.13;;;;;;;;;;5091014;28;20131;-70
2022/03/30 14:23:39;;;;;;;21.05;8.48;;;;;;;;;;5107430;28;20142;-71
2022/03/30 14:26:08;;;;;;;21.90;8.07;;;;;;;;;;5099395;28;20048;-72
2022/03/30 14:28:36;;;;;;;29.77;9.00;;;;;;;;;;5088557;28;20388;-72
2022/03/30 14:31:09;;;;;;;24.98;8.38;;;;;;;;;;5090107;28;20052;-71
2022/03/30 14:33:38;;;;;;;26.15;10.10;;;;;;;;;;5095733;28;20052;-71
2022/03/30 14:36:07;;;;;;;22.23;8.43;;;;;;;;;;5080208;28;20440;-71
2022/03/30 14:38:38;;;;;;;20.75;9.13;;;;;;;;;;5097484;28;20045;-72
2022/03/30 14:41:06;;;;;;;21.70;9.52;;;;;;;;;;5091919;28;20066;-71
2022/03/30 14:43:39;;;;;;;26.90;9.80;;;;;;;;;;5097041;28;20085;-72
2022/03/30 14:46:08;;;;;;;21.35;8.75;;;;;;;;;;5099310;28;20044;-70
2022/03/30 14:48:37;;;;;;;22.20;8.30;;;;;;;;;;5096529;28;20104;-70
2022/03/30 14:51:07;;;;;;;23.38;9.18;;;;;;;;;;5091277;28;20464;-70
2022/03/30 14:53:36;;;;;;;22.65;9.05;;;;;;;;;;5094468;28;20045;-71
2022/03/30 14:56:12;;;;;;;26.23;8.73;;;;;;;;;;5089191;28;20127;-71
2022/03/30 14:58:41;;;;;;;24.17;10.00;;;;;;;;;;5088810;28;20048;-71
2022/03/30 15:01:16;;;;;;;19.15;9.00;;;;;;;;;;5085574;28;20476;-71
2022/03/30 15:03:45;;;;;;;23.05;8.70;;;;;;;;;;5089544;28;20406;-70
2022/03/30 15:06:14;;;;;;;24.60;9.40;;;;;;;;;;5090321;28;20105;-71
2022/03/30 15:08:45;;;;;;;23.38;9.68;;;;;;;;;;5089476;28;20089;-71